sensor_id;sensor_type;location;lat;lon;timestamp;P1;durP1;ratioP1;P2;durP2;ratioP2
3943;SDS011;1986;52.546;13.428;2023-11-21T00:00:35;9.00;;;8.90;;
3943;SDS011;1986;52.546;13.428;2023-11-21T00:03:04;9.20;;;9.10;;
3943;SDS011;1986;52.546;13.428;2023-11-21T00:05:31;9.03;;;8.93;;
3943;SDS011;1986;52.546;13.428;2023-11-21T00:24:54;9.70;;;9.60;;
3943;SDS011;1986;52.546;13.428;2023-11-21T00:27:21;9.80;;;9.70;;
3943;SDS011;1986;52.546;13.428;2023-11-21T00:29:49;9.90;;;9.80;;
3943;SDS011;1986;52.546;13.428;2023-11-21T00:32:16;9.90;;;9.80;;
3943;SDS011;1986;52.546;13.428;2023-11-21T00:34:43;10.10;;;10.00;;
3943;SDS011;1986;52.546;13.428;2023-11-21T00:37:10;10.10;;;10.00;;
3943;SDS011;1986;52.546;13.428;2023-11-21T00:39:39;9.87;;;9.77;;
3943;SDS011;1986;52.546;13.428;2023-11-21T00:42:08;10.23;;;10.13;;
3943;SDS011;1986;52.546;13.428;2023-11-21T00:44:37;10.50;;;10.40;;
3943;SDS011;1986;52.546;13.428;2023-11-21T00:47:05;10.50;;;10.40;;
3943;SDS011;1986;52.546;13.428;2023-11-21T00:49:33;10.63;;;10.53;;
3943;SDS011;1986;52.546;13.428;2023-11-21T00:52:00;10.50;;;10.40;;
3943;SDS011;1986;52.546;13.428;2023-11-21T00:54:29;10.50;;;10.40;;
3943;SDS011;1986;52.546;13.428;2023-11-21T00:56:58;10.60;;;10.50;;
3943;SDS011;1986;52.546;13.428;2023-11-21T00:59:30;10.50;;;10.40;;
3943;SDS011;1986;52.546;13.428;2023-11-21T01:01:57;10.40;;;10.30;;
3943;SDS011;1986;52.546;13.428;2023-11-21T01:04:26;10.47;;;10.37;;
3943;SDS011;1986;52.546;13.428;2023-11-21T01:07:03;10.60;;;10.50;;
3943;SDS011;1986;52.546;13.428;2023-11-21T01:09:33;11.20;;;11.00;;
3943;SDS011;1986;52.546;13.428;2023-11-21T01:12:01;11.10;;;10.90;;
3943;SDS011;1986;52.546;13.428;2023-11-21T01:14:30;11.40;;;11.20;;
3943;SDS011;1986;52.546;13.428;2023-11-21T01:17:05;11.60;;;11.40;;
3943;SDS011;1986;52.546;13.428;2023-11-21T01:19:32;11.70;;;11.50;;
3943;SDS011;1986;52.546;13.428;2023-11-21T01:22:01;11.90;;;11.60;;
3943;SDS011;1986;52.546;13.428;2023-11-21T01:24:29;11.97;;;11.67;;
3943;SDS011;1986;52.546;13.428;2023-11-21T01:26:56;11.70;;;11.50;;
3943;SDS011;1986;52.546;13.428;2023-11-21T01:29:26;11.70;;;11.50;;
3943;SDS011;1986;52.546;13.428;2023-11-21T01:31:55;12.00;;;11.70;;
3943;SDS011;1986;52.546;13.428;2023-11-21T01:34:25;12.20;;;11.90;;
3943;SDS011;1986;52.546;13.428;2023-11-21T01:36:53;12.30;;;12.00;;
3943;SDS011;1986;52.546;13.428;2023-11-21T01:39:22;12.60;;;12.30;;
3943;SDS011;1986;52.546;13.428;2023-11-21T01:41:50;12.70;;;12.40;;
3943;SDS011;1986;52.546;13.428;2023-11-21T01:44:18;12.90;;;12.60;;
3943;SDS011;1986;52.546;13.428;2023-11-21T01:46:46;13.20;;;12.90;;
3943;SDS011;1986;52.546;13.428;2023-11-21T01:49:18;13.10;;;12.80;;
3943;SDS011;1986;52.546;13.428;2023-11-21T01:51:46;13.40;;;13.00;;
3943;SDS011;1986;52.546;13.428;2023-11-21T01:54:15;13.50;;;13.10;;
3943;SDS011;1986;52.546;13.428;2023-11-21T01:56:43;13.60;;;13.20;;
3943;SDS011;1986;52.546;13.428;2023-11-21T01:59:12;13.30;;;12.90;;
3943;SDS011;1986;52.546;13.428;2023-11-21T02:01:44;13.60;;;13.20;;
3943;SDS011;1986;52.546;13.428;2023-11-21T02:04:12;13.70;;;13.30;;
3943;SDS011;1986;52.546;13.428;2023-11-21T02:06:40;13.70;;;13.30;;
3943;SDS011;1986;52.546;13.428;2023-11-21T02:09:08;13.80;;;13.40;;
3943;SDS011;1986;52.546;13.428;2023-11-21T02:11:40;14.00;;;13.60;;
3943;SDS011;1986;52.546;13.428;2023-11-21T02:14:07;14.43;;;13.93;;
3943;SDS011;1986;52.546;13.428;2023-11-21T02:16:38;14.00;;;13.60;;
3943;SDS011;1986;52.546;13.428;2023-11-21T02:19:06;13.90;;;13.50;;
3943;SDS011;1986;52.546;13.428;2023-11-21T02:21:40;14.00;;;13.60;;
3943;SDS011;1986;52.546;13.428;2023-11-21T02:24:11;14.30;;;13.80;;
3943;SDS011;1986;52.546;13.428;2023-11-21T02:26:38;14.60;;;14.10;;
3943;SDS011;1986;52.546;13.428;2023-11-21T02:29:06;14.60;;;14.10;;
3943;SDS011;1986;52.546;13.428;2023-11-21T02:31:36;14.67;;;14.17;;
3943;SDS011;1986;52.546;13.428;2023-11-21T02:34:10;15.00;;;14.50;;
3943;SDS011;1986;52.546;13.428;2023-11-21T02:36:38;15.20;;;14.60;;
3943;SDS011;1986;52.546;13.428;2023-11-21T02:39:07;15.30;;;14.70;;
3943;SDS011;1986;52.546;13.428;2023-11-21T02:41:37;14.93;;;14.43;;
3943;SDS011;1986;52.546;13.428;2023-11-21T02:44:05;14.90;;;14.40;;
3943;SDS011;1986;52.546;13.428;2023-11-21T02:46:33;14.83;;;14.33;;
3943;SDS011;1986;52.546;13.428;2023-11-21T02:49:05;14.70;;;14.20;;
3943;SDS011;1986;52.546;13.428;2023-11-21T02:51:36;14.70;;;14.20;;
3943;SDS011;1986;52.546;13.428;2023-11-21T02:54:04;14.40;;;13.90;;
3943;SDS011;1986;52.546;13.428;2023-11-21T02:56:35;14.23;;;13.83;;
3943;SDS011;1986;52.546;13.428;2023-11-21T02:59:05;13.90;;;13.50;;
3943;SDS011;1986;52.546;13.428;2023-11-21T03:01:34;13.60;;;13.20;;
3943;SDS011;1986;52.546;13.428;2023-11-21T03:04:01;13.93;;;13.53;;
3943;SDS011;1986;52.546;13.428;2023-11-21T03:06:28;13.73;;;13.33;;
3943;SDS011;1986;52.546;13.428;2023-11-21T03:08:56;13.90;;;13.50;;
3943;SDS011;1986;52.546;13.428;2023-11-21T03:11:26;14.37;;;13.93;;
3943;SDS011;1986;52.546;13.428;2023-11-21T03:13:54;14.23;;;13.83;;
3943;SDS011;1986;52.546;13.428;2023-11-21T03:16:21;14.20;;;13.80;;
3943;SDS011;1986;52.546;13.428;2023-11-21T03:18:51;14.20;;;13.80;;
3943;SDS011;1986;52.546;13.428;2023-11-21T03:21:18;14.00;;;13.60;;
3943;SDS011;1986;52.546;13.428;2023-11-21T03:23:45;14.20;;;13.80;;
3943;SDS011;1986;52.546;13.428;2023-11-21T03:26:12;14.00;;;13.60;;
3943;SDS011;1986;52.546;13.428;2023-11-21T03:28:41;14.00;;;13.60;;
3943;SDS011;1986;52.546;13.428;2023-11-21T03:31:10;13.90;;;13.50;;
3943;SDS011;1986;52.546;13.428;2023-11-21T03:33:37;14.30;;;13.90;;
3943;SDS011;1986;52.546;13.428;2023-11-21T03:36:08;13.87;;;13.50;;
3943;SDS011;1986;52.546;13.428;2023-11-21T03:38:36;14.10;;;13.70;;
3943;SDS011;1986;52.546;13.428;2023-11-21T03:41:04;14.30;;;13.90;;
3943;SDS011;1986;52.546;13.428;2023-11-21T03:43:32;13.70;;;13.40;;
3943;SDS011;1986;52.546;13.428;2023-11-21T03:45:59;13.80;;;13.50;;
3943;SDS011;1986;52.546;13.428;2023-11-21T03:48:27;13.90;;;13.60;;
3943;SDS011;1986;52.546;13.428;2023-11-21T03:50:58;13.60;;;13.30;;
3943;SDS011;1986;52.546;13.428;2023-11-21T03:53:25;13.20;;;12.90;;
3943;SDS011;1986;52.546;13.428;2023-11-21T03:55:54;12.90;;;12.70;;
3943;SDS011;1986;52.546;13.428;2023-11-21T03:58:21;12.43;;;12.23;;
3943;SDS011;1986;52.546;13.428;2023-11-21T04:00:48;13.40;;;13.20;;
3943;SDS011;1986;52.546;13.428;2023-11-21T04:03:15;14.10;;;13.80;;
3943;SDS011;1986;52.546;13.428;2023-11-21T04:05:44;13.83;;;13.53;;
3943;SDS011;1986;52.546;13.428;2023-11-21T04:08:12;14.30;;;14.00;;
3943;SDS011;1986;52.546;13.428;2023-11-21T04:10:39;15.30;;;14.90;;
3943;SDS011;1986;52.546;13.428;2023-11-21T04:13:08;15.70;;;15.27;;
3943;SDS011;1986;52.546;13.428;2023-11-21T04:15:37;16.40;;;15.90;;
3943;SDS011;1986;52.546;13.428;2023-11-21T04:18:11;16.93;;;16.43;;
3943;SDS011;1986;52.546;13.428;2023-11-21T04:20:38;17.67;;;17.07;;
3943;SDS011;1986;52.546;13.428;2023-11-21T04:23:06;17.30;;;16.70;;
3943;SDS011;1986;52.546;13.428;2023-11-21T04:25:35;17.50;;;16.90;;
3943;SDS011;1986;52.546;13.428;2023-11-21T04:28:02;17.70;;;17.10;;
3943;SDS011;1986;52.546;13.428;2023-11-21T04:30:31;18.13;;;17.43;;
3943;SDS011;1986;52.546;13.428;2023-11-21T04:32:58;17.40;;;16.80;;
3943;SDS011;1986;52.546;13.428;2023-11-21T04:35:29;17.70;;;17.10;;
3943;SDS011;1986;52.546;13.428;2023-11-21T04:37:55;17.37;;;16.77;;
3943;SDS011;1986;52.546;13.428;2023-11-21T04:40:25;17.40;;;16.80;;
3943;SDS011;1986;52.546;13.428;2023-11-21T04:42:52;17.50;;;16.90;;
3943;SDS011;1986;52.546;13.428;2023-11-21T04:45:19;17.30;;;16.80;;
3943;SDS011;1986;52.546;13.428;2023-11-21T04:47:45;17.57;;;16.97;;
3943;SDS011;1986;52.546;13.428;2023-11-21T04:50:15;17.67;;;17.10;;
3943;SDS011;1986;52.546;13.428;2023-11-21T04:52:42;17.77;;;17.17;;
3943;SDS011;1986;52.546;13.428;2023-11-21T04:55:09;17.50;;;17.00;;
3943;SDS011;1986;52.546;13.428;2023-11-21T04:57:37;17.20;;;16.70;;
3943;SDS011;1986;52.546;13.428;2023-11-21T05:00:05;16.70;;;16.10;;
3943;SDS011;1986;52.546;13.428;2023-11-21T05:02:32;16.60;;;16.00;;
3943;SDS011;1986;52.546;13.428;2023-11-21T05:05:00;16.93;;;16.33;;
3943;SDS011;1986;52.546;13.428;2023-11-21T05:07:27;17.87;;;17.27;;
3943;SDS011;1986;52.546;13.428;2023-11-21T05:09:57;18.00;;;17.30;;
3943;SDS011;1986;52.546;13.428;2023-11-21T05:12:24;19.17;;;18.47;;
3943;SDS011;1986;52.546;13.428;2023-11-21T05:14:53;18.80;;;18.10;;
3943;SDS011;1986;52.546;13.428;2023-11-21T05:17:20;18.30;;;17.60;;
3943;SDS011;1986;52.546;13.428;2023-11-21T05:19:47;17.40;;;16.80;;
3943;SDS011;1986;52.546;13.428;2023-11-21T05:22:14;17.93;;;17.20;;
3943;SDS011;1986;52.546;13.428;2023-11-21T05:24:41;17.57;;;16.87;;
3943;SDS011;1986;52.546;13.428;2023-11-21T05:27:08;17.77;;;17.07;;
3943;SDS011;1986;52.546;13.428;2023-11-21T05:29:35;17.70;;;17.00;;
3943;SDS011;1986;52.546;13.428;2023-11-21T05:32:05;17.87;;;17.10;;
3943;SDS011;1986;52.546;13.428;2023-11-21T05:34:32;17.40;;;16.70;;
3943;SDS011;1986;52.546;13.428;2023-11-21T05:36:59;17.50;;;16.80;;
3943;SDS011;1986;52.546;13.428;2023-11-21T05:39:27;17.20;;;16.50;;
3943;SDS011;1986;52.546;13.428;2023-11-21T05:41:57;17.20;;;16.50;;
3943;SDS011;1986;52.546;13.428;2023-11-21T05:44:25;17.70;;;17.00;;
3943;SDS011;1986;52.546;13.428;2023-11-21T05:46:52;18.50;;;17.70;;
3943;SDS011;1986;52.546;13.428;2023-11-21T05:49:22;18.70;;;17.80;;
3943;SDS011;1986;52.546;13.428;2023-11-21T05:51:55;18.93;;;18.10;;
3943;SDS011;1986;52.546;13.428;2023-11-21T05:54:43;18.93;;;18.13;;
3943;SDS011;1986;52.546;13.428;2023-11-21T05:57:11;19.40;;;18.50;;
3943;SDS011;1986;52.546;13.428;2023-11-21T05:59:38;19.70;;;18.70;;
3943;SDS011;1986;52.546;13.428;2023-11-21T06:02:06;19.60;;;18.70;;
3943;SDS011;1986;52.546;13.428;2023-11-21T06:04:34;19.90;;;19.00;;
3943;SDS011;1986;52.546;13.428;2023-11-21T06:07:02;20.50;;;19.50;;
3943;SDS011;1986;52.546;13.428;2023-11-21T06:09:30;20.30;;;19.40;;
3943;SDS011;1986;52.546;13.428;2023-11-21T06:11:57;20.47;;;19.57;;
3943;SDS011;1986;52.546;13.428;2023-11-21T06:14:24;20.27;;;19.37;;
3943;SDS011;1986;52.546;13.428;2023-11-21T06:16:51;19.80;;;19.00;;
3943;SDS011;1986;52.546;13.428;2023-11-21T06:19:18;19.10;;;18.40;;
3943;SDS011;1986;52.546;13.428;2023-11-21T06:21:48;18.67;;;18.07;;
3943;SDS011;1986;52.546;13.428;2023-11-21T06:24:15;19.00;;;18.40;;
3943;SDS011;1986;52.546;13.428;2023-11-21T06:26:42;16.90;;;16.50;;
3943;SDS011;1986;52.546;13.428;2023-11-21T06:29:10;16.20;;;15.80;;
3943;SDS011;1986;52.546;13.428;2023-11-21T06:31:38;14.73;;;14.43;;
3943;SDS011;1986;52.546;13.428;2023-11-21T06:34:05;13.67;;;13.47;;
3943;SDS011;1986;52.546;13.428;2023-11-21T06:36:35;11.73;;;11.63;;
3943;SDS011;1986;52.546;13.428;2023-11-21T06:39:06;10.40;;;10.30;;
3943;SDS011;1986;52.546;13.428;2023-11-21T06:41:33;8.93;;;8.83;;
3943;SDS011;1986;52.546;13.428;2023-11-21T06:44:04;8.53;;;8.43;;
3943;SDS011;1986;52.546;13.428;2023-11-21T06:46:36;8.33;;;8.23;;
3943;SDS011;1986;52.546;13.428;2023-11-21T06:49:07;8.10;;;8.10;;
3943;SDS011;1986;52.546;13.428;2023-11-21T06:51:34;7.50;;;7.50;;
3943;SDS011;1986;52.546;13.428;2023-11-21T06:54:03;7.03;;;7.03;;
3943;SDS011;1986;52.546;13.428;2023-11-21T06:56:34;6.80;;;6.80;;
3943;SDS011;1986;52.546;13.428;2023-11-21T06:59:01;6.73;;;6.73;;
3943;SDS011;1986;52.546;13.428;2023-11-21T07:01:31;6.70;;;6.70;;
3943;SDS011;1986;52.546;13.428;2023-11-21T07:04:04;6.37;;;6.37;;
3943;SDS011;1986;52.546;13.428;2023-11-21T07:06:34;5.80;;;5.80;;
3943;SDS011;1986;52.546;13.428;2023-11-21T07:09:04;5.97;;;5.97;;
3943;SDS011;1986;52.546;13.428;2023-11-21T07:11:33;6.20;;;6.20;;
3943;SDS011;1986;52.546;13.428;2023-11-21T07:14:01;6.10;;;6.10;;
3943;SDS011;1986;52.546;13.428;2023-11-21T07:16:32;6.27;;;6.27;;
3943;SDS011;1986;52.546;13.428;2023-11-21T07:19:04;6.10;;;6.10;;
3943;SDS011;1986;52.546;13.428;2023-11-21T07:21:37;5.93;;;5.93;;
3943;SDS011;1986;52.546;13.428;2023-11-21T07:24:07;5.87;;;5.87;;
3943;SDS011;1986;52.546;13.428;2023-11-21T07:26:36;6.30;;;6.30;;
3943;SDS011;1986;52.546;13.428;2023-11-21T07:29:04;6.17;;;6.17;;
3943;SDS011;1986;52.546;13.428;2023-11-21T07:31:37;5.80;;;5.80;;
3943;SDS011;1986;52.546;13.428;2023-11-21T07:34:05;6.60;;;6.60;;
3943;SDS011;1986;52.546;13.428;2023-11-21T07:36:33;5.90;;;5.90;;
3943;SDS011;1986;52.546;13.428;2023-11-21T07:39:02;6.20;;;6.20;;
3943;SDS011;1986;52.546;13.428;2023-11-21T07:41:33;6.10;;;6.10;;
3943;SDS011;1986;52.546;13.428;2023-11-21T07:44:00;6.10;;;6.10;;
3943;SDS011;1986;52.546;13.428;2023-11-21T07:46:29;5.40;;;5.40;;
3943;SDS011;1986;52.546;13.428;2023-11-21T07:48:58;5.63;;;5.63;;
3943;SDS011;1986;52.546;13.428;2023-11-21T07:51:29;5.70;;;5.70;;
3943;SDS011;1986;52.546;13.428;2023-11-21T07:53:56;5.60;;;5.60;;
3943;SDS011;1986;52.546;13.428;2023-11-21T07:56:23;5.60;;;5.60;;
3943;SDS011;1986;52.546;13.428;2023-11-21T07:58:52;5.70;;;5.70;;
3943;SDS011;1986;52.546;13.428;2023-11-21T08:01:19;5.50;;;5.50;;
3943;SDS011;1986;52.546;13.428;2023-11-21T08:03:48;5.60;;;5.60;;
3943;SDS011;1986;52.546;13.428;2023-11-21T08:06:17;6.07;;;6.07;;
3943;SDS011;1986;52.546;13.428;2023-11-21T08:08:45;6.00;;;6.00;;
3943;SDS011;1986;52.546;13.428;2023-11-21T08:11:12;6.17;;;6.17;;
3943;SDS011;1986;52.546;13.428;2023-11-21T08:13:39;5.80;;;5.80;;
3943;SDS011;1986;52.546;13.428;2023-11-21T08:16:08;5.80;;;5.80;;
3943;SDS011;1986;52.546;13.428;2023-11-21T08:18:37;6.03;;;6.03;;
3943;SDS011;1986;52.546;13.428;2023-11-21T08:21:05;5.80;;;5.80;;
3943;SDS011;1986;52.546;13.428;2023-11-21T08:23:33;5.60;;;5.60;;
3943;SDS011;1986;52.546;13.428;2023-11-21T08:26:02;5.93;;;5.93;;
3943;SDS011;1986;52.546;13.428;2023-11-21T08:28:31;5.80;;;5.80;;
3943;SDS011;1986;52.546;13.428;2023-11-21T08:30:58;6.07;;;6.07;;
3943;SDS011;1986;52.546;13.428;2023-11-21T08:33:28;5.80;;;5.80;;
3943;SDS011;1986;52.546;13.428;2023-11-21T08:35:55;5.80;;;5.80;;
3943;SDS011;1986;52.546;13.428;2023-11-21T08:38:22;5.70;;;5.70;;
3943;SDS011;1986;52.546;13.428;2023-11-21T08:40:49;5.90;;;5.90;;
3943;SDS011;1986;52.546;13.428;2023-11-21T08:43:17;6.30;;;6.30;;
3943;SDS011;1986;52.546;13.428;2023-11-21T08:45:45;5.80;;;5.80;;
3943;SDS011;1986;52.546;13.428;2023-11-21T08:48:15;6.10;;;6.10;;
3943;SDS011;1986;52.546;13.428;2023-11-21T08:50:46;6.20;;;6.20;;
3943;SDS011;1986;52.546;13.428;2023-11-21T08:53:15;5.93;;;5.93;;
3943;SDS011;1986;52.546;13.428;2023-11-21T08:55:42;5.80;;;5.80;;
3943;SDS011;1986;52.546;13.428;2023-11-21T08:58:11;5.80;;;5.80;;
3943;SDS011;1986;52.546;13.428;2023-11-21T09:00:39;5.70;;;5.70;;
3943;SDS011;1986;52.546;13.428;2023-11-21T09:03:11;5.90;;;5.90;;
3943;SDS011;1986;52.546;13.428;2023-11-21T09:05:40;5.40;;;5.40;;
3943;SDS011;1986;52.546;13.428;2023-11-21T09:08:09;5.97;;;5.97;;
3943;SDS011;1986;52.546;13.428;2023-11-21T09:10:37;6.50;;;6.50;;
3943;SDS011;1986;52.546;13.428;2023-11-21T09:13:04;6.60;;;6.60;;
3943;SDS011;1986;52.546;13.428;2023-11-21T09:15:34;6.47;;;6.47;;
3943;SDS011;1986;52.546;13.428;2023-11-21T09:18:01;6.53;;;6.53;;
3943;SDS011;1986;52.546;13.428;2023-11-21T09:20:31;6.90;;;6.90;;
3943;SDS011;1986;52.546;13.428;2023-11-21T09:22:58;6.60;;;6.60;;
3943;SDS011;1986;52.546;13.428;2023-11-21T09:25:29;6.87;;;6.87;;
3943;SDS011;1986;52.546;13.428;2023-11-21T09:27:56;6.40;;;6.40;;
3943;SDS011;1986;52.546;13.428;2023-11-21T09:30:23;6.30;;;6.30;;
3943;SDS011;1986;52.546;13.428;2023-11-21T09:32:50;5.93;;;5.93;;
3943;SDS011;1986;52.546;13.428;2023-11-21T09:35:17;4.67;;;4.67;;
3943;SDS011;1986;52.546;13.428;2023-11-21T09:37:46;4.93;;;4.93;;
3943;SDS011;1986;52.546;13.428;2023-11-21T09:40:13;4.63;;;4.63;;
3943;SDS011;1986;52.546;13.428;2023-11-21T09:42:47;4.40;;;4.40;;
3943;SDS011;1986;52.546;13.428;2023-11-21T09:45:21;4.47;;;4.47;;
3943;SDS011;1986;52.546;13.428;2023-11-21T09:47:59;4.80;;;4.80;;
3943;SDS011;1986;52.546;13.428;2023-11-21T09:50:27;4.90;;;4.90;;
3943;SDS011;1986;52.546;13.428;2023-11-21T09:53:00;5.70;;;5.70;;
3943;SDS011;1986;52.546;13.428;2023-11-21T09:55:40;6.10;;;6.10;;
3943;SDS011;1986;52.546;13.428;2023-11-21T09:58:13;6.30;;;6.30;;
3943;SDS011;1986;52.546;13.428;2023-11-21T10:00:40;6.23;;;6.23;;
3943;SDS011;1986;52.546;13.428;2023-11-21T10:03:08;6.10;;;6.10;;
3943;SDS011;1986;52.546;13.428;2023-11-21T10:05:38;6.13;;;6.13;;
3943;SDS011;1986;52.546;13.428;2023-11-21T10:08:18;5.90;;;5.90;;
3943;SDS011;1986;52.546;13.428;2023-11-21T10:10:49;5.90;;;5.90;;
3943;SDS011;1986;52.546;13.428;2023-11-21T10:13:22;5.90;;;5.90;;
3943;SDS011;1986;52.546;13.428;2023-11-21T10:15:51;5.50;;;5.50;;
3943;SDS011;1986;52.546;13.428;2023-11-21T10:18:19;5.50;;;5.50;;
3943;SDS011;1986;52.546;13.428;2023-11-21T10:20:48;5.30;;;5.30;;
3943;SDS011;1986;52.546;13.428;2023-11-21T10:23:18;5.20;;;5.20;;
3943;SDS011;1986;52.546;13.428;2023-11-21T10:25:46;5.10;;;5.10;;
3943;SDS011;1986;52.546;13.428;2023-11-21T10:28:13;4.80;;;4.80;;
3943;SDS011;1986;52.546;13.428;2023-11-21T10:30:44;4.40;;;4.40;;
3943;SDS011;1986;52.546;13.428;2023-11-21T10:33:13;4.30;;;4.30;;
3943;SDS011;1986;52.546;13.428;2023-11-21T10:35:43;4.00;;;4.00;;
3943;SDS011;1986;52.546;13.428;2023-11-21T10:38:13;3.70;;;3.70;;
3943;SDS011;1986;52.546;13.428;2023-11-21T10:40:42;3.30;;;3.30;;
3943;SDS011;1986;52.546;13.428;2023-11-21T10:43:12;3.00;;;3.00;;
3943;SDS011;1986;52.546;13.428;2023-11-21T10:45:40;3.00;;;3.00;;
3943;SDS011;1986;52.546;13.428;2023-11-21T10:48:12;2.93;;;2.93;;
3943;SDS011;1986;52.546;13.428;2023-11-21T10:50:41;2.80;;;2.80;;
3943;SDS011;1986;52.546;13.428;2023-11-21T10:53:10;2.80;;;2.80;;
3943;SDS011;1986;52.546;13.428;2023-11-21T10:55:39;2.60;;;2.60;;
3943;SDS011;1986;52.546;13.428;2023-11-21T10:58:06;2.50;;;2.50;;
3943;SDS011;1986;52.546;13.428;2023-11-21T11:00:38;2.30;;;2.30;;
3943;SDS011;1986;52.546;13.428;2023-11-21T11:03:12;2.17;;;2.17;;
3943;SDS011;1986;52.546;13.428;2023-11-21T11:05:40;2.50;;;2.50;;
3943;SDS011;1986;52.546;13.428;2023-11-21T11:08:11;2.30;;;2.30;;
3943;SDS011;1986;52.546;13.428;2023-11-21T11:10:43;3.00;;;3.00;;
3943;SDS011;1986;52.546;13.428;2023-11-21T11:13:13;3.00;;;3.00;;
3943;SDS011;1986;52.546;13.428;2023-11-21T11:15:40;3.40;;;3.40;;
3943;SDS011;1986;52.546;13.428;2023-11-21T11:18:10;3.27;;;3.27;;
3943;SDS011;1986;52.546;13.428;2023-11-21T11:20:38;3.90;;;3.90;;
3943;SDS011;1986;52.546;13.428;2023-11-21T11:23:17;4.33;;;4.33;;
3943;SDS011;1986;52.546;13.428;2023-11-21T11:26:02;4.30;;;4.30;;
3943;SDS011;1986;52.546;13.428;2023-11-21T11:28:42;4.10;;;4.10;;
3943;SDS011;1986;52.546;13.428;2023-11-21T11:31:21;4.40;;;4.40;;
3943;SDS011;1986;52.546;13.428;2023-11-21T11:33:58;4.40;;;4.40;;
3943;SDS011;1986;52.546;13.428;2023-11-21T11:36:34;4.50;;;4.50;;
3943;SDS011;1986;52.546;13.428;2023-11-21T11:39:04;4.60;;;4.60;;
3943;SDS011;1986;52.546;13.428;2023-11-21T11:41:55;5.03;;;5.03;;
3943;SDS011;1986;52.546;13.428;2023-11-21T11:47:21;5.40;;;5.40;;
3943;SDS011;1986;52.546;13.428;2023-11-21T11:49:58;5.00;;;5.00;;
3943;SDS011;1986;52.546;13.428;2023-11-21T11:52:34;4.87;;;4.87;;
3943;SDS011;1986;52.546;13.428;2023-11-21T11:55:02;4.80;;;4.80;;
3943;SDS011;1986;52.546;13.428;2023-11-21T11:57:30;4.90;;;4.90;;
3943;SDS011;1986;52.546;13.428;2023-11-21T12:00:08;3.63;;;3.63;;
3943;SDS011;1986;52.546;13.428;2023-11-21T12:02:37;4.30;;;4.30;;
3943;SDS011;1986;52.546;13.428;2023-11-21T12:05:09;5.40;;;5.40;;
3943;SDS011;1986;52.546;13.428;2023-11-21T12:07:48;5.40;;;5.40;;
3943;SDS011;1986;52.546;13.428;2023-11-21T12:10:18;5.90;;;5.90;;
3943;SDS011;1986;52.546;13.428;2023-11-21T12:12:47;5.80;;;5.80;;
3943;SDS011;1986;52.546;13.428;2023-11-21T12:15:15;5.90;;;5.90;;
3943;SDS011;1986;52.546;13.428;2023-11-21T12:17:45;5.53;;;5.53;;
3943;SDS011;1986;52.546;13.428;2023-11-21T12:20:15;5.50;;;5.50;;
3943;SDS011;1986;52.546;13.428;2023-11-21T12:22:47;4.80;;;4.80;;
3943;SDS011;1986;52.546;13.428;2023-11-21T12:25:16;4.90;;;4.90;;
3943;SDS011;1986;52.546;13.428;2023-11-21T12:27:45;4.70;;;4.70;;
3943;SDS011;1986;52.546;13.428;2023-11-21T12:30:14;5.00;;;5.00;;
3943;SDS011;1986;52.546;13.428;2023-11-21T12:32:43;4.70;;;4.70;;
3943;SDS011;1986;52.546;13.428;2023-11-21T12:35:16;4.40;;;4.40;;
3943;SDS011;1986;52.546;13.428;2023-11-21T12:37:51;4.40;;;4.40;;
3943;SDS011;1986;52.546;13.428;2023-11-21T12:40:18;4.40;;;4.40;;
3943;SDS011;1986;52.546;13.428;2023-11-21T12:42:49;4.13;;;4.13;;
3943;SDS011;1986;52.546;13.428;2023-11-21T12:45:18;4.07;;;4.07;;
3943;SDS011;1986;52.546;13.428;2023-11-21T12:47:46;3.77;;;3.77;;
3943;SDS011;1986;52.546;13.428;2023-11-21T12:50:24;3.20;;;3.20;;
3943;SDS011;1986;52.546;13.428;2023-11-21T12:52:54;3.40;;;3.40;;
3943;SDS011;1986;52.546;13.428;2023-11-21T12:55:30;3.70;;;3.70;;
3943;SDS011;1986;52.546;13.428;2023-11-21T12:58:02;2.70;;;2.70;;
3943;SDS011;1986;52.546;13.428;2023-11-21T13:00:34;2.70;;;2.70;;
3943;SDS011;1986;52.546;13.428;2023-11-21T13:03:07;2.20;;;2.20;;
3943;SDS011;1986;52.546;13.428;2023-11-21T13:05:40;2.27;;;2.27;;
3943;SDS011;1986;52.546;13.428;2023-11-21T13:08:10;2.50;;;2.50;;
3943;SDS011;1986;52.546;13.428;2023-11-21T13:10:43;2.20;;;2.20;;
3943;SDS011;1986;52.546;13.428;2023-11-21T13:13:14;2.37;;;2.37;;
3943;SDS011;1986;52.546;13.428;2023-11-21T13:15:52;2.40;;;2.40;;
3943;SDS011;1986;52.546;13.428;2023-11-21T13:18:21;2.90;;;2.90;;
3943;SDS011;1986;52.546;13.428;2023-11-21T13:20:57;3.00;;;3.00;;
3943;SDS011;1986;52.546;13.428;2023-11-21T13:23:29;3.00;;;3.00;;
3943;SDS011;1986;52.546;13.428;2023-11-21T13:26:03;3.40;;;3.40;;
3943;SDS011;1986;52.546;13.428;2023-11-21T13:28:30;3.10;;;3.10;;
3943;SDS011;1986;52.546;13.428;2023-11-21T13:30:59;3.53;;;3.53;;
3943;SDS011;1986;52.546;13.428;2023-11-21T13:33:34;3.30;;;3.30;;
3943;SDS011;1986;52.546;13.428;2023-11-21T13:36:05;3.77;;;3.77;;
3943;SDS011;1986;52.546;13.428;2023-11-21T13:38:34;3.80;;;3.80;;
3943;SDS011;1986;52.546;13.428;2023-11-21T13:41:03;5.37;;;5.37;;
3943;SDS011;1986;52.546;13.428;2023-11-21T13:43:32;6.97;;;6.97;;
3943;SDS011;1986;52.546;13.428;2023-11-21T13:46:02;8.37;;;8.27;;
3943;SDS011;1986;52.546;13.428;2023-11-21T13:48:38;8.43;;;8.33;;
3943;SDS011;1986;52.546;13.428;2023-11-21T13:51:10;8.73;;;8.63;;
3943;SDS011;1986;52.546;13.428;2023-11-21T13:53:44;9.07;;;8.97;;
3943;SDS011;1986;52.546;13.428;2023-11-21T13:56:13;7.80;;;7.80;;
3943;SDS011;1986;52.546;13.428;2023-11-21T13:58:44;7.37;;;7.37;;
3943;SDS011;1986;52.546;13.428;2023-11-21T14:01:16;7.90;;;7.90;;
3943;SDS011;1986;52.546;13.428;2023-11-21T14:04:06;7.80;;;7.80;;
3943;SDS011;1986;52.546;13.428;2023-11-21T14:06:45;7.60;;;7.60;;
3943;SDS011;1986;52.546;13.428;2023-11-21T14:09:14;6.67;;;6.67;;
3943;SDS011;1986;52.546;13.428;2023-11-21T14:11:49;6.97;;;6.97;;
3943;SDS011;1986;52.546;13.428;2023-11-21T14:14:19;6.20;;;6.20;;
3943;SDS011;1986;52.546;13.428;2023-11-21T14:16:47;5.60;;;5.60;;
3943;SDS011;1986;52.546;13.428;2023-11-21T14:19:17;5.80;;;5.80;;
3943;SDS011;1986;52.546;13.428;2023-11-21T14:21:48;5.90;;;5.90;;
3943;SDS011;1986;52.546;13.428;2023-11-21T14:24:16;5.50;;;5.50;;
3943;SDS011;1986;52.546;13.428;2023-11-21T14:26:44;4.87;;;4.87;;
3943;SDS011;1986;52.546;13.428;2023-11-21T14:29:12;5.90;;;5.90;;
3943;SDS011;1986;52.546;13.428;2023-11-21T14:31:42;5.30;;;5.30;;
3943;SDS011;1986;52.546;13.428;2023-11-21T14:34:10;5.50;;;5.50;;
3943;SDS011;1986;52.546;13.428;2023-11-21T14:36:40;5.40;;;5.40;;
3943;SDS011;1986;52.546;13.428;2023-11-21T14:39:13;5.10;;;5.10;;
3943;SDS011;1986;52.546;13.428;2023-11-21T14:41:53;4.50;;;4.50;;
3943;SDS011;1986;52.546;13.428;2023-11-21T14:44:23;4.50;;;4.50;;
3943;SDS011;1986;52.546;13.428;2023-11-21T14:46:53;3.70;;;3.70;;
3943;SDS011;1986;52.546;13.428;2023-11-21T14:49:22;3.20;;;3.20;;
3943;SDS011;1986;52.546;13.428;2023-11-21T14:51:53;3.03;;;3.03;;
3943;SDS011;1986;52.546;13.428;2023-11-21T14:54:27;3.63;;;3.63;;
3943;SDS011;1986;52.546;13.428;2023-11-21T14:57:11;3.43;;;3.43;;
3943;SDS011;1986;52.546;13.428;2023-11-21T14:59:43;3.20;;;3.20;;
3943;SDS011;1986;52.546;13.428;2023-11-21T15:02:12;3.10;;;3.10;;
3943;SDS011;1986;52.546;13.428;2023-11-21T15:04:45;3.00;;;3.00;;
3943;SDS011;1986;52.546;13.428;2023-11-21T15:07:26;3.30;;;3.30;;
3943;SDS011;1986;52.546;13.428;2023-11-21T15:09:56;3.90;;;3.90;;
3943;SDS011;1986;52.546;13.428;2023-11-21T15:12:23;3.60;;;3.60;;
3943;SDS011;1986;52.546;13.428;2023-11-21T15:14:56;3.30;;;3.30;;
3943;SDS011;1986;52.546;13.428;2023-11-21T15:17:35;3.67;;;3.67;;
3943;SDS011;1986;52.546;13.428;2023-11-21T15:20:04;3.77;;;3.77;;
3943;SDS011;1986;52.546;13.428;2023-11-21T15:22:33;3.77;;;3.77;;
3943;SDS011;1986;52.546;13.428;2023-11-21T15:25:02;3.90;;;3.90;;